createdAt,value
2019-06-08T00:00:23.699Z,100264.00
2019-06-08T00:02:54.045Z,100244.00
2019-06-08T00:05:24.807Z,100245.00
2019-06-08T00:07:55.200Z,100229.00
2019-06-08T00:10:26.077Z,100233.00
2019-06-08T00:12:56.679Z,100235.00
2019-06-08T00:15:27.292Z,100239.00
2019-06-08T00:17:59.407Z,100225.00
2019-06-08T00:20:30.234Z,100235.00
2019-06-08T00:23:00.596Z,100237.00
2019-06-08T00:25:30.936Z,100228.00
2019-06-08T00:28:20.536Z,100238.00
2019-06-08T00:30:51.125Z,100249.00
2019-06-08T00:33:22.647Z,100253.00
2019-06-08T00:35:53.386Z,100257.00
2019-06-08T00:38:25.154Z,100249.00
2019-06-08T00:40:55.594Z,100251.00
2019-06-08T00:43:25.945Z,100240.00
2019-06-08T00:45:56.269Z,100243.00
2019-06-08T00:48:26.750Z,100240.00
2019-06-08T00:50:57.396Z,100234.00
2019-06-08T00:53:27.806Z,100253.00
2019-06-08T00:55:58.164Z,100256.00
2019-06-08T00:58:28.795Z,100256.00
2019-06-08T01:00:59.195Z,100261.00
2019-06-08T01:03:30.014Z,100275.00
2019-06-08T01:06:00.709Z,100274.00
2019-06-08T01:08:31.043Z,100275.00
2019-06-08T01:11:01.385Z,100276.00
2019-06-08T01:13:31.761Z,100279.00
2019-06-08T01:16:02.083Z,100291.00
2019-06-08T01:18:32.744Z,100295.00
2019-06-08T01:21:03.112Z,100288.00
2019-06-08T01:23:33.606Z,100297.00
2019-06-08T01:26:04.072Z,100283.00
2019-06-08T01:28:34.390Z,100290.00
2019-06-08T01:31:04.715Z,100287.00
2019-06-08T01:33:35.101Z,100290.00
2019-06-08T01:36:05.513Z,100289.00
2019-06-08T01:38:36.140Z,100282.00
2019-06-08T01:41:06.760Z,100290.00
2019-06-08T01:43:37.135Z,100290.00
2019-06-08T01:46:07.844Z,100286.00
2019-06-08T01:48:38.441Z,100301.00
2019-06-08T01:51:09.090Z,100302.00
2019-06-08T01:53:40.263Z,100300.00
2019-06-08T01:56:10.674Z,100298.00
2019-06-08T01:58:41.303Z,100289.00
2019-06-08T02:01:11.651Z,100292.00
2019-06-08T02:03:42.805Z,100292.00
2019-06-08T02:06:13.155Z,100296.00
2019-06-08T02:08:43.497Z,100294.00
2019-06-08T02:11:14.147Z,100302.00
2019-06-08T02:13:44.566Z,100296.00
2019-06-08T02:16:14.925Z,100298.00
2019-06-08T02:18:50.937Z,100294.00
2019-06-08T02:21:17.664Z,100300.00
2019-06-08T02:23:48.293Z,100298.00
2019-06-08T02:26:19.383Z,100291.00
2019-06-08T02:28:49.725Z,100295.00
2019-06-08T02:31:20.052Z,100288.00
2019-06-08T02:33:50.428Z,100300.00
2019-06-08T02:36:20.831Z,100303.00
2019-06-08T02:38:51.188Z,100294.00
2019-06-08T02:41:21.562Z,100300.00
2019-06-08T02:43:55.195Z,100300.00
2019-06-08T02:46:25.683Z,100303.00
2019-06-08T02:49:04.003Z,100297.00
2019-06-08T02:51:31.227Z,100304.00
2019-06-08T02:54:03.907Z,100296.00
2019-06-08T02:56:36.838Z,100299.00
2019-06-08T02:59:08.044Z,100295.00
2019-06-08T03:01:40.653Z,100302.00
2019-06-08T03:04:14.615Z,100307.00
2019-06-08T03:06:47.383Z,100307.00
2019-06-08T03:09:21.564Z,100308.00
2019-06-08T03:11:55.597Z,100301.00
2019-06-08T03:14:28.504Z,100305.00
2019-06-08T03:16:58.850Z,100304.00
2019-06-08T03:19:29.176Z,100321.00
2019-06-08T03:22:00.547Z,100320.00
2019-06-08T03:24:32.407Z,100321.00
2019-06-08T03:27:03.828Z,100339.00
2019-06-08T03:29:34.915Z,100337.00
2019-06-08T03:32:05.949Z,100348.00
2019-06-08T03:34:45.818Z,100337.00
2019-06-08T03:37:08.638Z,100344.00
2019-06-08T03:39:39.085Z,100357.00
2019-06-08T03:42:09.858Z,100350.00
2019-06-08T03:44:40.510Z,100364.00
2019-06-08T03:47:11.274Z,100368.00
2019-06-08T03:49:52.296Z,100375.00
2019-06-08T03:52:13.758Z,100362.00
2019-06-08T03:54:45.263Z,100363.00
2019-06-08T03:57:16.170Z,100367.00
2019-06-08T03:59:47.857Z,100371.00
2019-06-08T04:02:18.299Z,100376.00
2019-06-08T04:04:49.980Z,100377.00
2019-06-08T04:07:20.508Z,100375.00
2019-06-08T04:09:50.838Z,100374.00
2019-06-08T04:12:21.271Z,100370.00
2019-06-08T04:14:51.885Z,100389.00
2019-06-08T04:17:22.270Z,100376.00
2019-06-08T04:20:09.522Z,100386.00
2019-06-08T04:22:24.808Z,100391.00
2019-06-08T04:24:55.397Z,100386.00
2019-06-08T04:27:25.834Z,100383.00
2019-06-08T04:29:56.164Z,100381.00
2019-06-08T04:32:26.791Z,100390.00
2019-06-08T04:34:57.179Z,100382.00
2019-06-08T04:37:27.781Z,100384.00
2019-06-08T04:39:58.413Z,100390.00
2019-06-08T04:42:29.121Z,100387.00
2019-06-08T04:44:59.785Z,100398.00
2019-06-08T04:47:30.640Z,100392.00
2019-06-08T04:50:20.338Z,100380.00
2019-06-08T04:52:33.045Z,100407.00
2019-06-08T04:55:03.354Z,100410.00
2019-06-08T04:57:33.681Z,100415.00
2019-06-08T05:00:11.799Z,100419.00
2019-06-08T05:02:39.107Z,100419.00
2019-06-08T05:05:09.645Z,100420.00
2019-06-08T05:07:41.573Z,100421.00
2019-06-08T05:10:12.984Z,100430.00
2019-06-08T05:12:45.436Z,100427.00
2019-06-08T05:15:16.052Z,100431.00
2019-06-08T05:17:47.499Z,100432.00
2019-06-08T05:20:18.008Z,100427.00
2019-06-08T05:22:49.674Z,100439.00
2019-06-08T05:25:20.111Z,100430.00
2019-06-08T05:27:50.777Z,100439.00
2019-06-08T05:30:23.046Z,100432.00
2019-06-08T05:32:54.256Z,100446.00
2019-06-08T05:35:24.816Z,100439.00
2019-06-08T05:37:55.547Z,100447.00
2019-06-08T05:40:26.184Z,100461.00
2019-06-08T05:42:56.510Z,100451.00
2019-06-08T05:45:26.874Z,100453.00
2019-06-08T05:47:57.586Z,100456.00
2019-06-08T05:50:28.165Z,100461.00
2019-06-08T05:52:58.566Z,100456.00
2019-06-08T05:55:29.196Z,100465.00
2019-06-08T05:57:59.906Z,100468.00
2019-06-08T06:00:30.254Z,100480.00
2019-06-08T06:03:00.590Z,100483.00
2019-06-08T06:05:31.206Z,100482.00
2019-06-08T06:08:01.654Z,100489.00
2019-06-08T06:10:32.267Z,100476.00
2019-06-08T06:13:03.119Z,100481.00
2019-06-08T06:15:33.869Z,100499.00
2019-06-08T06:18:04.463Z,100472.00
2019-06-08T06:20:34.783Z,100489.00
2019-06-08T06:23:05.440Z,100494.00
2019-06-08T06:25:36.052Z,100496.00
2019-06-08T06:28:06.681Z,100505.00
2019-06-08T06:30:37.409Z,100503.00
2019-06-08T06:33:07.887Z,100501.00
2019-06-08T06:35:38.245Z,100516.00
2019-06-08T06:38:08.595Z,100502.00
2019-06-08T06:40:39.071Z,100521.00
2019-06-08T06:43:09.421Z,100524.00
2019-06-08T06:45:39.753Z,100526.00
2019-06-08T06:48:10.086Z,100527.00
2019-06-08T06:50:40.415Z,100546.00
2019-06-08T06:53:10.745Z,100550.00
2019-06-08T06:55:41.202Z,100534.00
2019-06-08T06:58:11.573Z,100538.00
2019-06-08T07:00:43.240Z,100553.00
2019-06-08T07:03:13.607Z,100561.00
2019-06-08T07:05:43.976Z,100552.00
2019-06-08T07:08:14.339Z,100567.00
2019-06-08T07:10:45.077Z,100567.00
2019-06-08T07:13:15.407Z,100573.00
2019-06-08T07:15:47.077Z,100587.00
2019-06-08T07:18:18.404Z,100581.00
2019-06-08T07:20:50.170Z,100579.00
2019-06-08T07:23:20.946Z,100595.00
2019-06-08T07:25:52.983Z,100593.00
2019-06-08T07:28:23.477Z,100592.00
2019-06-08T07:30:55.108Z,100600.00
2019-06-08T07:33:26.093Z,100582.00
2019-06-08T07:35:56.709Z,100604.00
2019-06-08T07:38:27.034Z,100610.00
2019-06-08T07:40:59.992Z,100611.00
2019-06-08T07:43:30.242Z,100623.00
2019-06-08T07:46:00.588Z,100645.00
2019-06-08T07:48:30.933Z,100624.00
2019-06-08T07:51:01.540Z,100628.00
2019-06-08T07:53:32.135Z,100628.00
2019-06-08T07:56:02.786Z,100637.00
2019-06-08T07:58:33.133Z,100641.00
2019-06-08T08:01:07.889Z,100634.00
2019-06-08T08:03:35.651Z,100623.00
2019-06-08T08:06:06.144Z,100650.00
2019-06-08T08:08:36.803Z,100638.00
2019-06-08T08:11:07.216Z,100638.00
2019-06-08T08:13:37.535Z,100646.00
2019-06-08T08:16:07.848Z,100652.00
2019-06-08T08:18:38.299Z,100651.00
2019-06-08T08:21:21.280Z,100675.00
2019-06-08T08:23:41.052Z,100655.00
2019-06-08T08:26:11.714Z,100671.00
2019-06-08T08:28:42.462Z,100664.00
2019-06-08T08:31:15.264Z,100663.00
2019-06-08T08:33:44.859Z,100677.00
2019-06-08T08:36:15.209Z,100697.00
2019-06-08T08:38:47.714Z,100694.00
2019-06-08T08:41:18.332Z,100696.00
2019-06-08T08:43:51.292Z,100686.00
2019-06-08T08:46:20.863Z,100693.00
2019-06-08T08:48:52.431Z,100702.00
2019-06-08T08:51:22.761Z,100708.00
2019-06-08T08:53:55.807Z,100701.00
2019-06-08T08:56:27.832Z,100708.00
2019-06-08T08:59:00.693Z,100714.00
2019-06-08T09:01:29.947Z,100712.00
2019-06-08T09:04:03.714Z,100716.00
2019-06-08T09:06:32.531Z,100727.00
2019-06-08T09:09:03.662Z,100723.00
2019-06-08T09:11:34.075Z,100735.00
2019-06-08T09:14:09.596Z,100745.00
2019-06-08T09:16:38.412Z,100746.00
2019-06-08T09:19:10.866Z,100740.00
2019-06-08T09:21:41.236Z,100747.00
2019-06-08T09:24:11.981Z,100756.00
2019-06-08T09:26:42.651Z,100758.00
2019-06-08T09:29:12.965Z,100756.00
2019-06-08T09:31:43.298Z,100772.00
2019-06-08T09:34:15.478Z,100770.00
2019-06-08T09:36:47.877Z,100750.00
2019-06-08T09:39:18.719Z,100766.00
2019-06-08T09:41:49.152Z,100775.00
2019-06-08T09:44:19.492Z,100776.00
2019-06-08T09:46:51.177Z,100775.00
2019-06-08T09:49:22.170Z,100787.00
2019-06-08T09:51:53.786Z,100791.00
2019-06-08T09:54:25.233Z,100797.00
2019-06-08T09:56:58.134Z,100789.00
2019-06-08T09:59:28.536Z,100788.00
2019-06-08T10:02:05.521Z,100794.00
2019-06-08T10:04:31.664Z,100792.00
2019-06-08T10:07:02.710Z,100787.00
2019-06-08T10:09:34.432Z,100780.00
2019-06-08T10:12:07.311Z,100782.00
2019-06-08T10:14:38.019Z,100780.00
2019-06-08T10:17:09.092Z,100785.00
2019-06-08T10:19:39.512Z,100797.00
2019-06-08T10:22:10.439Z,100813.00
2019-06-08T10:24:41.480Z,100804.00
2019-06-08T10:27:12.586Z,100813.00
2019-06-08T10:29:43.042Z,100801.00
2019-06-08T10:32:17.893Z,100806.00
2019-06-08T10:34:48.105Z,100808.00
2019-06-08T10:37:19.318Z,100804.00
2019-06-08T10:39:49.902Z,100820.00
2019-06-08T10:42:20.505Z,100813.00
2019-06-08T10:44:51.181Z,100817.00
2019-06-08T10:47:21.552Z,100835.00
2019-06-08T10:49:52.880Z,100827.00
2019-06-08T10:52:29.281Z,100831.00
2019-06-08T10:55:01.533Z,100839.00
2019-06-08T10:57:31.758Z,100830.00
2019-06-08T11:00:12.372Z,100844.00
2019-06-08T11:02:34.116Z,100855.00
2019-06-08T11:05:12.179Z,100847.00
2019-06-08T11:07:38.150Z,100858.00
2019-06-08T11:10:12.239Z,100861.00
2019-06-08T11:12:41.467Z,100859.00
2019-06-08T11:15:13.456Z,100864.00
2019-06-08T11:17:43.872Z,100867.00
2019-06-08T11:20:14.706Z,100850.00
2019-06-08T11:22:49.867Z,100847.00
2019-06-08T11:25:20.182Z,100858.00
2019-06-08T11:27:50.577Z,100862.00
2019-06-08T11:30:26.776Z,100856.00
2019-06-08T11:32:53.857Z,100836.00
2019-06-08T11:35:24.800Z,100870.00
2019-06-08T11:37:58.314Z,100859.00
2019-06-08T11:40:27.896Z,100861.00
2019-06-08T11:42:58.670Z,100876.00
2019-06-08T11:45:30.482Z,100866.00
2019-06-08T11:48:04.541Z,100875.00
2019-06-08T11:50:42.077Z,100893.00
2019-06-08T11:53:14.928Z,100883.00
2019-06-08T11:55:50.654Z,100880.00
2019-06-08T11:58:22.782Z,100907.00
2019-06-08T12:01:08.973Z,100898.00
2019-06-08T12:03:38.722Z,100904.00
2019-06-08T12:06:12.975Z,100887.00
2019-06-08T12:08:41.711Z,100881.00
2019-06-08T12:11:18.181Z,100909.00
2019-06-08T12:13:44.445Z,100905.00
2019-06-08T12:16:18.723Z,100893.00
2019-06-08T12:18:49.191Z,100901.00
2019-06-08T12:21:18.892Z,100899.00
2019-06-08T12:23:49.246Z,100919.00
2019-06-08T12:26:19.883Z,100922.00
2019-06-08T12:28:50.229Z,100915.00
2019-06-08T12:31:22.551Z,100907.00
2019-06-08T12:33:53.292Z,100915.00
2019-06-08T12:36:23.614Z,100918.00
2019-06-08T12:38:53.934Z,100935.00
2019-06-08T12:41:24.302Z,100928.00
2019-06-08T12:43:55.083Z,100939.00
2019-06-08T12:46:27.788Z,100926.00
2019-06-08T12:48:58.410Z,100941.00
2019-06-08T12:51:28.850Z,100928.00
2019-06-08T12:54:00.275Z,100957.00
2019-06-08T12:56:30.718Z,100948.00
2019-06-08T12:59:01.064Z,100949.00
2019-06-08T13:01:31.489Z,100942.00
2019-06-08T13:04:01.834Z,100959.00
2019-06-08T13:06:32.233Z,100955.00
2019-06-08T13:09:02.638Z,100941.00
2019-06-08T13:11:32.946Z,100960.00
2019-06-08T13:14:03.291Z,100967.00
2019-06-08T13:16:33.637Z,100961.00
2019-06-08T13:19:04.104Z,100954.00
2019-06-08T13:21:35.743Z,100957.00
2019-06-08T13:24:08.740Z,100956.00
2019-06-08T13:26:39.044Z,100959.00
2019-06-08T13:29:10.987Z,100941.00
2019-06-08T13:31:41.737Z,100934.00
2019-06-08T13:34:14.239Z,100950.00
2019-06-08T13:36:44.420Z,100939.00
2019-06-08T13:39:14.975Z,100952.00
2019-06-08T13:41:45.470Z,100936.00
2019-06-08T13:44:17.732Z,100948.00
2019-06-08T13:46:48.582Z,100955.00
2019-06-08T13:49:25.513Z,100948.00
2019-06-08T13:51:51.335Z,100954.00
2019-06-08T13:54:23.086Z,100957.00
2019-06-08T13:56:54.038Z,100965.00
2019-06-08T13:59:27.796Z,100961.00
2019-06-08T14:01:57.962Z,100958.00
2019-06-08T14:04:28.507Z,100954.00
2019-06-08T14:06:58.834Z,100963.00
2019-06-08T14:09:31.515Z,100946.00
2019-06-08T14:12:01.877Z,100953.00
2019-06-08T14:14:33.697Z,100960.00
2019-06-08T14:17:04.584Z,100962.00
2019-06-08T14:19:35.184Z,100958.00
2019-06-08T14:22:05.510Z,100973.00
2019-06-08T14:24:37.741Z,100981.00
2019-06-08T14:27:08.320Z,100966.00
2019-06-08T14:29:38.974Z,100961.00
2019-06-08T14:32:09.318Z,100972.00
2019-06-08T14:34:39.661Z,100967.00
2019-06-08T14:37:10.013Z,100953.00
2019-06-08T14:39:40.426Z,100958.00
2019-06-08T14:42:11.207Z,100951.00
2019-06-08T14:44:41.599Z,100953.00
2019-06-08T14:47:14.932Z,100945.00
2019-06-08T14:49:48.796Z,100955.00
2019-06-08T14:52:22.196Z,100954.00
2019-06-08T14:54:51.454Z,100949.00
2019-06-08T14:57:23.280Z,100972.00
2019-06-08T14:59:59.045Z,100961.00
2019-06-08T15:02:28.607Z,100956.00
2019-06-08T15:04:59.714Z,100947.00
2019-06-08T15:07:32.372Z,100967.00
2019-06-08T15:10:02.221Z,100968.00
2019-06-08T15:12:32.604Z,100970.00
2019-06-08T15:15:03.541Z,100981.00
2019-06-08T15:17:33.933Z,100983.00
2019-06-08T15:20:06.123Z,100980.00
2019-06-08T15:22:38.808Z,100973.00
2019-06-08T15:25:11.105Z,100977.00
2019-06-08T15:27:41.363Z,100985.00
2019-06-08T15:30:12.318Z,100991.00
2019-06-08T15:32:42.945Z,100969.00
2019-06-08T15:35:13.384Z,100969.00
2019-06-08T15:37:47.681Z,100975.00
2019-06-08T15:40:18.173Z,100961.00
2019-06-08T15:42:50.581Z,100991.00
2019-06-08T15:45:22.007Z,100990.00
2019-06-08T15:47:53.170Z,100992.00
2019-06-08T15:50:24.186Z,101008.00
2019-06-08T15:52:54.804Z,101010.00
2019-06-08T15:55:26.764Z,100999.00
2019-06-08T15:57:58.584Z,100999.00
2019-06-08T16:00:32.836Z,100998.00
2019-06-08T16:03:03.284Z,101004.00
2019-06-08T16:05:33.921Z,101002.00
2019-06-08T16:08:04.857Z,101006.00
2019-06-08T16:10:36.303Z,101004.00
2019-06-08T16:13:06.630Z,101017.00
2019-06-08T16:15:39.365Z,101006.00
2019-06-08T16:18:10.304Z,101005.00
2019-06-08T16:20:40.677Z,101016.00
2019-06-08T16:23:11.020Z,101020.00
2019-06-08T16:25:41.604Z,101037.00
2019-06-08T16:28:12.543Z,101059.00
2019-06-08T16:30:42.890Z,101061.00
2019-06-08T16:33:13.375Z,101064.00
2019-06-08T16:35:43.798Z,101062.00
2019-06-08T16:38:14.788Z,101078.00
2019-06-08T16:40:45.532Z,101071.00
2019-06-08T16:43:15.931Z,101074.00
2019-06-08T16:45:49.619Z,101073.00
2019-06-08T16:48:20.354Z,101076.00
2019-06-08T16:50:50.933Z,101077.00
2019-06-08T16:53:21.297Z,101048.00
2019-06-08T16:55:51.693Z,101072.00
2019-06-08T16:58:22.260Z,101078.00
2019-06-08T17:00:52.969Z,101089.00
2019-06-08T17:03:23.402Z,101102.00
2019-06-08T17:05:54.049Z,101119.00
2019-06-08T17:08:24.496Z,101113.00
2019-06-08T17:10:54.812Z,101132.00
2019-06-08T17:13:25.236Z,101133.00
2019-06-08T17:15:56.340Z,101138.00
2019-06-08T17:18:26.647Z,101137.00
2019-06-08T17:20:57.028Z,101151.00
2019-06-08T17:23:27.987Z,101140.00
2019-06-08T17:25:59.805Z,101139.00
2019-06-08T17:28:30.769Z,101139.00
2019-06-08T17:31:01.198Z,101128.00
2019-06-08T17:33:33.189Z,101133.00
2019-06-08T17:36:03.660Z,101149.00
2019-06-08T17:38:34.481Z,101152.00
2019-06-08T17:41:04.799Z,101123.00
2019-06-08T17:43:36.154Z,101133.00
2019-06-08T17:46:07.306Z,101144.00
2019-06-08T17:48:38.620Z,101150.00
2019-06-08T17:51:09.491Z,101129.00
2019-06-08T17:53:40.900Z,101149.00
2019-06-08T17:56:11.306Z,101151.00
2019-06-08T17:58:41.922Z,101136.00
2019-06-08T18:01:12.224Z,101128.00
2019-06-08T18:03:44.602Z,101137.00
2019-06-08T18:06:17.824Z,101150.00
2019-06-08T18:08:48.124Z,101145.00
2019-06-08T18:11:18.879Z,101148.00
2019-06-08T18:13:49.550Z,101151.00
2019-06-08T18:16:22.485Z,101152.00
2019-06-08T18:18:52.961Z,101164.00
2019-06-08T18:21:23.358Z,101170.00
2019-06-08T18:23:54.158Z,101164.00
2019-06-08T18:26:27.818Z,101156.00
2019-06-08T18:29:01.017Z,101160.00
2019-06-08T18:31:34.449Z,101153.00
2019-06-08T18:34:05.277Z,101180.00
2019-06-08T18:36:39.225Z,101183.00
2019-06-08T18:39:08.195Z,101162.00
2019-06-08T18:41:40.743Z,101181.00
2019-06-08T18:44:10.939Z,101186.00
2019-06-08T18:46:43.222Z,101193.00
2019-06-08T18:49:13.700Z,101185.00
2019-06-08T18:51:46.250Z,101198.00
2019-06-08T18:54:18.828Z,101203.00
2019-06-08T18:56:49.020Z,101205.00
2019-06-08T18:59:19.565Z,101202.00
2019-06-08T19:01:50.031Z,101190.00
2019-06-08T19:04:21.393Z,101201.00
2019-06-08T19:06:53.469Z,101207.00
2019-06-08T19:09:24.453Z,101195.00
2019-06-08T19:11:57.326Z,101200.00
2019-06-08T19:14:28.668Z,101223.00
2019-06-08T19:16:59.538Z,101199.00
2019-06-08T19:19:31.448Z,101204.00
2019-06-08T19:22:04.124Z,101204.00
2019-06-08T19:24:34.537Z,101203.00
2019-06-08T19:27:07.691Z,101208.00
2019-06-08T19:29:39.367Z,101217.00
2019-06-08T19:32:23.018Z,101217.00
2019-06-08T19:34:54.830Z,101218.00
2019-06-08T19:37:27.833Z,101224.00
2019-06-08T19:39:58.086Z,101224.00
2019-06-08T19:42:39.950Z,101243.00
2019-06-08T19:45:05.468Z,101244.00
2019-06-08T19:47:35.994Z,101246.00
2019-06-08T19:50:07.849Z,101249.00
2019-06-08T19:52:42.579Z,101255.00
2019-06-08T19:55:10.976Z,101258.00
2019-06-08T19:57:41.385Z,101266.00
2019-06-08T20:00:12.863Z,101262.00
2019-06-08T20:02:44.617Z,101277.00
2019-06-08T20:05:17.456Z,101285.00
2019-06-08T20:07:49.094Z,101291.00
2019-06-08T20:10:19.628Z,101296.00
2019-06-08T20:12:50.978Z,101293.00
2019-06-08T20:15:21.615Z,101298.00
2019-06-08T20:17:52.025Z,101298.00
2019-06-08T20:20:22.459Z,101294.00
2019-06-08T20:22:53.623Z,101306.00
2019-06-08T20:25:24.563Z,101310.00
2019-06-08T20:27:55.204Z,101309.00
2019-06-08T20:30:28.010Z,101314.00
2019-06-08T20:32:57.945Z,101315.00
2019-06-08T20:35:28.297Z,101313.00
2019-06-08T20:37:59.347Z,101321.00
2019-06-08T20:40:30.121Z,101322.00
2019-06-08T20:43:00.459Z,101322.00
2019-06-08T20:45:30.882Z,101324.00
2019-06-08T20:48:01.575Z,101326.00
2019-06-08T20:50:31.939Z,101323.00
2019-06-08T20:53:02.546Z,101327.00
2019-06-08T20:55:32.970Z,101330.00
2019-06-08T20:58:03.558Z,101338.00
2019-06-08T21:00:34.212Z,101332.00
2019-06-08T21:03:05.070Z,101333.00
2019-06-08T21:05:40.774Z,101323.00
2019-06-08T21:08:11.860Z,101337.00
2019-06-08T21:10:42.681Z,101328.00
2019-06-08T21:13:13.082Z,101335.00
2019-06-08T21:15:44.397Z,101331.00
2019-06-08T21:18:16.164Z,101332.00
2019-06-08T21:20:47.224Z,101337.00
2019-06-08T21:23:17.572Z,101337.00
2019-06-08T21:25:50.824Z,101336.00
2019-06-08T21:28:20.364Z,101337.00
2019-06-08T21:30:54.203Z,101339.00
2019-06-08T21:33:23.540Z,101335.00
2019-06-08T21:36:01.354Z,101341.00
2019-06-08T21:38:28.174Z,101335.00
2019-06-08T21:41:02.586Z,101345.00
2019-06-08T21:43:31.178Z,101350.00
2019-06-08T21:46:01.555Z,101347.00
2019-06-08T21:48:32.519Z,101347.00
2019-06-08T21:51:03.174Z,101346.00
2019-06-08T21:53:37.995Z,101349.00
2019-06-08T21:56:08.048Z,101351.00
2019-06-08T21:58:40.144Z,101356.00
2019-06-08T22:01:10.988Z,101356.00
2019-06-08T22:03:41.457Z,101356.00
2019-06-08T22:06:12.069Z,101361.00
2019-06-08T22:08:42.375Z,101349.00
2019-06-08T22:11:12.699Z,101359.00
2019-06-08T22:13:43.454Z,101346.00
2019-06-08T22:16:13.822Z,101348.00
2019-06-08T22:18:44.393Z,101360.00
2019-06-08T22:21:17.904Z,101357.00
2019-06-08T22:23:47.733Z,101367.00
2019-06-08T22:26:18.251Z,101373.00
2019-06-08T22:28:48.972Z,101372.00
2019-06-08T22:31:19.309Z,101374.00
2019-06-08T22:33:49.748Z,101373.00
2019-06-08T22:36:20.056Z,101378.00
2019-06-08T22:38:50.629Z,101386.00
2019-06-08T22:41:21.010Z,101391.00
2019-06-08T22:43:53.455Z,101384.00
2019-06-08T22:46:23.504Z,101384.00
2019-06-08T22:48:54.661Z,101388.00
2019-06-08T22:51:27.708Z,101384.00
2019-06-08T22:54:00.423Z,101390.00
2019-06-08T22:56:30.189Z,101384.00
2019-06-08T22:59:04.723Z,101383.00
2019-06-08T23:01:33.994Z,101387.00
2019-06-08T23:04:06.267Z,101387.00
2019-06-08T23:06:38.675Z,101385.00
2019-06-08T23:09:09.153Z,101398.00
2019-06-08T23:11:39.473Z,101397.00
2019-06-08T23:14:13.301Z,101393.00
2019-06-08T23:16:41.914Z,101393.00
2019-06-08T23:19:12.271Z,101401.00
2019-06-08T23:21:47.515Z,101396.00
2019-06-08T23:24:18.318Z,101393.00
2019-06-08T23:26:48.654Z,101396.00
2019-06-08T23:29:19.235Z,101388.00
2019-06-08T23:31:49.557Z,101398.00
2019-06-08T23:34:23.054Z,101400.00
2019-06-08T23:36:59.101Z,101401.00
2019-06-08T23:39:24.867Z,101404.00
2019-06-08T23:41:55.190Z,101404.00
2019-06-08T23:44:25.544Z,101403.00
2019-06-08T23:46:59.456Z,101402.00
2019-06-08T23:49:28.524Z,101405.00
2019-06-08T23:52:02.128Z,101400.00
2019-06-08T23:54:33.868Z,101399.00
2019-06-08T23:57:04.891Z,101407.00
2019-06-08T23:59:37.072Z,101399.00
